createdAt,value
2023-05-17T00:03:07.516Z,50.10
2023-05-17T00:05:35.876Z,50.20
2023-05-17T00:08:04.297Z,50.20
2023-05-17T00:10:32.717Z,50.20
2023-05-17T00:13:01.096Z,50.20
2023-05-17T01:02:56.489Z,50.40
2023-05-17T01:05:28.660Z,50.40
2023-05-17T01:07:57.567Z,50.40
2023-05-17T01:10:41.162Z,50.40
2023-05-17T01:13:16.580Z,50.40
2023-05-17T01:48:11.096Z,50.40
2023-05-17T01:50:40.937Z,50.40
2023-05-17T01:53:19.457Z,50.50
2023-05-17T01:55:53.848Z,50.50
2023-05-17T01:58:27.910Z,50.60
2023-05-17T02:48:13.156Z,50.50
2023-05-17T02:50:41.725Z,50.60
2023-05-17T02:53:10.164Z,50.60
2023-05-17T02:55:38.556Z,50.60
2023-05-17T02:58:07.036Z,50.70
2023-05-17T03:47:26.721Z,50.80
2023-05-17T03:49:56.011Z,50.90
2023-05-17T03:52:25.489Z,50.90
2023-05-17T03:54:53.946Z,51.00
2023-05-17T03:57:23.518Z,51.00
2023-05-17T03:59:52.026Z,51.00
2023-05-17T04:46:16.719Z,56.00
2023-05-17T04:48:45.393Z,55.40
2023-05-17T04:51:14.207Z,54.80
2023-05-17T04:53:42.880Z,54.40
2023-05-17T04:56:16.363Z,54.10
2023-05-17T04:58:44.972Z,53.80
2023-05-17T05:01:14.103Z,53.50
2023-05-17T05:03:44.123Z,53.20
2023-05-17T05:06:16.154Z,53.00
2023-05-17T05:08:44.680Z,52.80
2023-05-17T05:11:14.263Z,52.60
2023-05-17T05:13:42.735Z,52.50
2023-05-17T05:16:11.975Z,52.40
2023-05-17T05:18:40.602Z,52.40
2023-05-17T05:21:10.533Z,52.40
2023-05-17T05:23:39.902Z,52.20
2023-05-17T05:26:08.318Z,52.10
2023-05-17T05:28:37.348Z,52.00
2023-05-17T05:31:05.940Z,51.90
2023-05-17T05:33:43.323Z,46.70
2023-05-17T05:36:13.340Z,43.60
2023-05-17T05:38:42.608Z,41.70
2023-05-17T05:41:11.088Z,41.40
2023-05-17T05:43:39.409Z,41.20
2023-05-17T05:46:08.048Z,39.80
2023-05-17T05:48:39.360Z,40.00
2023-05-17T05:51:08.423Z,41.90
2023-05-17T05:53:39.834Z,43.20
2023-05-17T05:56:09.614Z,44.50
2023-05-17T05:58:38.244Z,46.30
2023-05-17T06:01:07.399Z,46.20
2023-05-17T06:03:35.772Z,46.20
2023-05-17T06:06:04.220Z,46.60
2023-05-17T06:08:32.702Z,45.40
2023-05-17T06:11:02.474Z,44.10
2023-05-17T06:13:30.888Z,44.70
2023-05-17T06:15:59.597Z,45.50
2023-05-17T06:18:28.158Z,45.80
2023-05-17T06:20:56.657Z,45.80
2023-05-17T06:23:25.596Z,46.00
2023-05-17T06:25:54.031Z,45.60
2023-05-17T06:28:23.877Z,46.70
2023-05-17T06:30:52.185Z,47.10
2023-05-17T06:33:20.670Z,46.30
2023-05-17T06:35:57.290Z,45.90
2023-05-17T06:38:29.620Z,45.60
2023-05-17T06:40:58.584Z,45.50
2023-05-17T06:43:28.393Z,45.40
2023-05-17T06:45:56.823Z,45.50
2023-05-17T06:48:25.329Z,45.60
2023-05-17T06:50:53.892Z,45.80
2023-05-17T06:53:22.395Z,45.80
2023-05-17T06:55:50.734Z,46.00
2023-05-17T06:58:19.082Z,46.00
2023-05-17T07:00:48.987Z,46.00
2023-05-17T07:03:17.395Z,46.10
2023-05-17T07:05:45.770Z,46.30
2023-05-17T07:08:15.280Z,46.20
2023-05-17T07:10:43.670Z,46.30
2023-05-17T07:13:12.020Z,46.50
2023-05-17T07:15:40.360Z,46.60
2023-05-17T07:18:10.149Z,47.00
2023-05-17T07:20:38.627Z,47.10
2023-05-17T07:23:07.700Z,47.30
2023-05-17T07:25:38.620Z,47.40
2023-05-17T07:28:07.161Z,47.60
2023-05-17T07:30:35.641Z,47.50
2023-05-17T07:33:04.218Z,47.50
2023-05-17T07:35:33.984Z,47.40
2023-05-17T07:38:02.339Z,47.30
2023-05-17T07:40:30.751Z,47.40
2023-05-17T07:42:59.071Z,47.30
2023-05-17T07:45:27.490Z,47.40
2023-05-17T07:47:56.046Z,47.40
2023-05-17T07:50:24.833Z,47.30
2023-05-17T07:52:54.678Z,47.40
2023-05-17T07:55:23.048Z,47.50
2023-05-17T07:57:52.450Z,47.50
2023-05-17T08:00:22.682Z,47.50
2023-05-17T08:02:51.530Z,47.30
2023-05-17T08:05:19.896Z,47.40
2023-05-17T08:07:48.236Z,47.30
2023-05-17T08:10:17.970Z,47.30
2023-05-17T08:12:46.682Z,47.50
2023-05-17T08:15:15.086Z,47.80
2023-05-17T08:17:43.534Z,48.00
2023-05-17T08:20:12.824Z,48.10
2023-05-17T08:22:41.689Z,48.20
2023-05-17T08:25:10.784Z,48.20
2023-05-17T08:27:40.779Z,48.10
2023-05-17T08:30:14.913Z,48.10
2023-05-17T08:32:46.594Z,48.10
2023-05-17T08:35:15.179Z,48.00
2023-05-17T08:37:44.025Z,48.00
2023-05-17T08:40:14.718Z,48.00
2023-05-17T08:42:44.920Z,48.00
2023-05-17T08:45:14.579Z,48.10
2023-05-17T08:47:46.624Z,48.00
2023-05-17T08:50:15.156Z,48.00
2023-05-17T08:52:47.256Z,48.10
2023-05-17T08:55:16.587Z,48.20
2023-05-17T08:57:47.084Z,48.10
2023-05-17T09:00:21.125Z,48.20
2023-05-17T09:02:49.833Z,48.10
2023-05-17T09:05:18.456Z,48.10
2023-05-17T09:07:48.442Z,48.30
2023-05-17T09:10:17.366Z,48.50
2023-05-17T09:12:47.571Z,48.50
2023-05-17T09:15:18.734Z,48.60
2023-05-17T09:17:54.321Z,48.70
2023-05-17T09:20:33.968Z,48.70
2023-05-17T09:23:03.081Z,48.70
2023-05-17T09:25:32.499Z,48.60
2023-05-17T09:28:04.699Z,48.50
2023-05-17T09:30:35.235Z,48.50
2023-05-17T09:33:07.971Z,48.50
2023-05-17T09:35:37.778Z,48.30
2023-05-17T09:38:09.325Z,48.40
2023-05-17T09:40:40.945Z,48.40
2023-05-17T09:43:11.690Z,48.40
2023-05-17T09:45:40.251Z,48.40
2023-05-17T09:48:15.040Z,48.30
2023-05-17T09:50:48.553Z,48.30
2023-05-17T09:53:27.794Z,48.30
2023-05-17T09:55:58.923Z,48.30
2023-05-17T09:58:29.772Z,48.30
2023-05-17T10:01:01.629Z,48.40
2023-05-17T10:03:34.298Z,48.50
2023-05-17T10:06:06.776Z,48.50
2023-05-17T10:08:36.627Z,48.50
2023-05-17T10:11:09.261Z,48.60
2023-05-17T10:13:55.505Z,48.60
2023-05-17T10:16:24.306Z,48.60
2023-05-17T10:18:53.808Z,48.70
2023-05-17T10:21:23.869Z,48.70
2023-05-17T10:23:53.302Z,48.70
2023-05-17T10:26:22.505Z,48.70
2023-05-17T10:28:54.362Z,48.60
2023-05-17T10:31:23.800Z,48.60
2023-05-17T10:33:52.866Z,48.60
2023-05-17T10:36:21.975Z,48.70
2023-05-17T10:38:50.938Z,48.70
2023-05-17T10:41:23.069Z,48.60
2023-05-17T10:43:54.133Z,48.60
2023-05-17T10:46:25.072Z,48.70
2023-05-17T10:48:55.089Z,48.70
2023-05-17T10:51:25.812Z,48.70
2023-05-17T10:54:09.577Z,49.40
2023-05-17T10:56:41.847Z,48.80
2023-05-17T10:59:21.595Z,48.80
2023-05-17T11:01:56.304Z,48.90
2023-05-17T11:04:27.444Z,48.90
2023-05-17T11:07:13.268Z,49.00
2023-05-17T11:09:42.256Z,49.00
2023-05-17T11:12:12.532Z,49.10
2023-05-17T11:14:54.478Z,49.10
2023-05-17T11:17:26.345Z,49.20
2023-05-17T11:20:02.974Z,49.20
2023-05-17T11:22:39.964Z,49.20
2023-05-17T11:25:12.001Z,49.20
2023-05-17T11:27:47.467Z,49.20
2023-05-17T11:30:26.753Z,49.20
2023-05-17T11:32:59.902Z,49.30
2023-05-17T11:35:31.250Z,49.20
2023-05-17T11:38:18.403Z,49.30
2023-05-17T11:40:48.570Z,50.00
2023-05-17T11:43:19.161Z,49.40
2023-05-17T11:45:53.256Z,49.30
2023-05-17T11:48:24.280Z,49.40
2023-05-17T11:50:54.689Z,49.40
2023-05-17T11:53:25.393Z,49.30
2023-05-17T11:55:54.542Z,49.40
2023-05-17T11:58:27.293Z,49.40
2023-05-17T12:00:59.507Z,49.40
2023-05-17T12:03:29.140Z,49.50
2023-05-17T12:06:05.943Z,49.40
2023-05-17T12:08:36.192Z,49.50
2023-05-17T12:11:06.772Z,49.50
2023-05-17T12:13:36.738Z,49.50
2023-05-17T12:16:13.692Z,49.50
2023-05-17T12:18:46.175Z,49.50
2023-05-17T12:21:15.742Z,49.60
2023-05-17T12:23:47.846Z,49.60
2023-05-17T12:26:19.011Z,49.60
2023-05-17T12:28:55.139Z,49.60
2023-05-17T12:31:29.912Z,49.70
2023-05-17T12:33:59.355Z,49.70
2023-05-17T12:36:31.441Z,49.70
2023-05-17T12:39:00.267Z,49.70
2023-05-17T12:41:29.418Z,49.70
2023-05-17T12:44:13.676Z,49.70
2023-05-17T12:46:45.032Z,49.80
2023-05-17T12:49:13.783Z,49.80
2023-05-17T12:51:44.087Z,49.80
2023-05-17T12:54:13.847Z,49.80
2023-05-17T12:56:44.621Z,49.90
2023-05-17T12:59:16.768Z,49.90
2023-05-17T13:01:48.750Z,49.90
2023-05-17T13:04:18.701Z,50.40
2023-05-17T13:06:51.682Z,50.40
2023-05-17T13:09:23.831Z,49.90
2023-05-17T13:11:53.104Z,49.90
2023-05-17T13:14:45.304Z,49.90
2023-05-17T13:17:20.893Z,49.90
2023-05-17T13:19:49.797Z,49.90
2023-05-17T13:22:18.343Z,49.90
2023-05-17T13:24:47.161Z,49.90
2023-05-17T13:27:15.633Z,49.90
2023-05-17T13:29:44.444Z,49.90
2023-05-17T13:32:15.143Z,49.90
2023-05-17T13:34:43.581Z,49.90
2023-05-17T13:37:12.873Z,49.90
2023-05-17T13:39:42.051Z,51.60
2023-05-17T13:42:10.753Z,51.60
2023-05-17T13:44:39.682Z,51.60
2023-05-17T13:47:08.416Z,51.80
2023-05-17T13:49:38.199Z,51.90
2023-05-17T13:52:08.864Z,51.90
2023-05-17T13:54:38.155Z,52.00
2023-05-17T13:57:07.768Z,52.00
2023-05-17T13:59:36.319Z,52.00
2023-05-17T14:02:05.183Z,52.00
2023-05-17T14:04:34.337Z,52.10
2023-05-17T14:07:04.696Z,52.10
2023-05-17T14:09:34.485Z,52.00
2023-05-17T14:12:03.071Z,52.00
2023-05-17T14:14:32.336Z,52.10
2023-05-17T14:17:01.572Z,52.20
2023-05-17T14:19:30.177Z,52.10
2023-05-17T14:21:58.817Z,52.00
2023-05-17T14:24:28.607Z,51.90
2023-05-17T14:26:57.673Z,51.80
2023-05-17T14:29:26.250Z,51.70
2023-05-17T14:31:54.692Z,51.60
2023-05-17T14:34:23.169Z,51.60
2023-05-17T14:36:51.967Z,51.60
2023-05-17T14:39:20.389Z,51.60
2023-05-17T14:41:50.120Z,51.50
2023-05-17T14:44:18.510Z,51.50
2023-05-17T14:46:46.942Z,51.50
2023-05-17T14:49:15.397Z,51.40
2023-05-17T14:51:44.861Z,51.40
2023-05-17T14:54:13.863Z,51.30
2023-05-17T14:56:42.384Z,51.30
2023-05-17T14:59:12.481Z,51.30
2023-05-17T15:01:41.124Z,51.30
2023-05-17T15:04:10.293Z,51.20
2023-05-17T15:06:38.983Z,51.20
2023-05-17T15:09:07.869Z,51.20
2023-05-17T15:11:36.293Z,51.10
2023-05-17T15:14:05.923Z,51.10
2023-05-17T15:16:36.145Z,51.20
2023-05-17T15:19:04.697Z,51.30
2023-05-17T15:21:33.143Z,51.50
2023-05-17T15:24:01.445Z,51.60
2023-05-17T15:26:29.808Z,51.70
2023-05-17T15:28:58.576Z,51.70
2023-05-17T15:31:28.548Z,51.80
2023-05-17T15:33:59.205Z,51.90
2023-05-17T15:36:27.704Z,52.00
2023-05-17T15:38:56.189Z,52.10
2023-05-17T15:41:29.836Z,52.10
2023-05-17T15:43:58.916Z,52.20
2023-05-17T15:46:27.461Z,51.80
2023-05-17T15:48:57.902Z,51.80
2023-05-17T15:51:26.310Z,51.80
2023-05-17T15:53:54.696Z,51.90
2023-05-17T15:56:23.342Z,52.00
2023-05-17T15:58:51.926Z,52.00
2023-05-17T16:01:20.449Z,52.00
2023-05-17T16:03:49.000Z,51.90
2023-05-17T16:06:19.666Z,51.90
2023-05-17T16:08:48.194Z,51.90
2023-05-17T16:11:17.058Z,52.30
2023-05-17T16:13:45.450Z,52.70
2023-05-17T16:16:14.592Z,52.20
2023-05-17T16:18:43.063Z,52.30
2023-05-17T16:21:12.116Z,52.40
2023-05-17T16:23:42.292Z,52.20
2023-05-17T16:26:10.787Z,52.20
2023-05-17T16:28:39.155Z,52.40
2023-05-17T16:31:07.741Z,52.10
2023-05-17T16:33:36.501Z,51.80
2023-05-17T16:36:05.606Z,51.70
2023-05-17T16:38:34.059Z,51.60
2023-05-17T16:41:03.848Z,51.50
2023-05-17T16:43:32.218Z,51.50
2023-05-17T16:46:00.799Z,51.40
2023-05-17T16:48:29.239Z,51.20
2023-05-17T16:50:59.323Z,51.30
2023-05-17T16:53:28.243Z,51.40
2023-05-17T16:55:56.776Z,50.90
2023-05-17T16:58:27.079Z,50.30
2023-05-17T17:00:55.722Z,50.60
2023-05-17T17:03:24.233Z,50.50
2023-05-17T17:05:52.729Z,50.50
2023-05-17T17:08:21.021Z,50.50
2023-05-17T17:10:49.313Z,50.50
2023-05-17T17:13:17.973Z,50.50
2023-05-17T17:15:48.786Z,50.50
2023-05-17T17:18:17.668Z,50.40
2023-05-17T17:20:46.371Z,50.40
2023-05-17T17:23:14.770Z,49.70
2023-05-17T17:25:43.101Z,48.90
2023-05-17T17:28:11.689Z,48.30
2023-05-17T17:30:40.022Z,48.10
2023-05-17T17:33:09.815Z,47.40
2023-05-17T17:35:38.619Z,47.70
2023-05-17T17:38:06.976Z,48.10
2023-05-17T17:40:35.356Z,47.50
2023-05-17T17:43:03.690Z,47.80
2023-05-17T17:45:32.105Z,47.00
2023-05-17T17:48:00.472Z,47.40
2023-05-17T17:50:30.722Z,47.40
2023-05-17T17:53:00.274Z,47.60
2023-05-17T17:55:28.793Z,47.90
2023-05-17T17:57:57.159Z,48.30
2023-05-17T18:00:25.609Z,48.40
2023-05-17T18:02:54.099Z,48.80
2023-05-17T18:05:22.583Z,48.80
2023-05-17T18:07:52.292Z,48.40
2023-05-17T18:10:21.207Z,47.80
2023-05-17T18:12:51.613Z,47.30
2023-05-17T18:15:20.243Z,45.70
2023-05-17T18:17:51.349Z,45.30
2023-05-17T18:20:22.144Z,44.60
2023-05-17T18:22:51.888Z,43.40
2023-05-17T18:25:20.311Z,43.20
2023-05-17T18:27:48.768Z,43.50
2023-05-17T18:30:18.536Z,43.70
2023-05-17T18:32:47.010Z,44.00
2023-05-17T18:35:15.965Z,43.60
2023-05-17T18:37:44.283Z,43.30
2023-05-17T18:40:16.092Z,43.10
2023-05-17T18:42:44.655Z,42.90
2023-05-17T18:45:13.053Z,42.90
2023-05-17T18:47:41.449Z,42.70
2023-05-17T18:50:10.487Z,42.40
2023-05-17T18:52:39.378Z,42.10
2023-05-17T18:55:08.324Z,42.00
2023-05-17T18:57:38.037Z,42.00
2023-05-17T19:00:08.596Z,41.80
2023-05-17T19:02:36.997Z,41.20
2023-05-17T19:05:06.051Z,41.60
2023-05-17T19:07:34.576Z,42.00
2023-05-17T19:10:04.285Z,41.50
2023-05-17T19:12:32.672Z,41.70
2023-05-17T19:15:02.668Z,42.00
2023-05-17T19:17:31.308Z,41.80
2023-05-17T19:19:59.744Z,42.20
2023-05-17T19:22:28.230Z,43.00
2023-05-17T19:24:56.656Z,43.00
2023-05-17T19:27:25.001Z,43.10
2023-05-17T19:29:53.546Z,45.40
2023-05-17T19:32:23.551Z,44.10
2023-05-17T19:34:51.964Z,44.20
2023-05-17T19:37:20.249Z,45.20
2023-05-17T19:39:48.610Z,47.20
2023-05-17T19:42:17.200Z,51.80
2023-05-17T19:44:45.622Z,51.50
2023-05-17T19:47:13.928Z,53.00
2023-05-17T19:49:44.233Z,53.00
2023-05-17T19:52:12.805Z,54.50
2023-05-17T19:54:41.361Z,51.80
2023-05-17T19:57:09.710Z,50.80
2023-05-17T19:59:39.317Z,50.30
2023-05-17T20:02:08.326Z,49.90
2023-05-17T20:04:36.621Z,49.60
2023-05-17T20:07:06.618Z,49.20
2023-05-17T20:09:34.970Z,49.00
2023-05-17T20:12:03.501Z,48.70
2023-05-17T20:14:31.916Z,48.60
2023-05-17T20:17:00.705Z,48.60
2023-05-17T20:19:31.527Z,48.70
2023-05-17T20:22:01.638Z,48.90
2023-05-17T20:24:33.446Z,49.20
2023-05-17T20:27:02.439Z,49.20
2023-05-17T20:29:31.619Z,49.20
2023-05-17T20:32:00.382Z,48.50
2023-05-17T20:34:29.323Z,48.20
2023-05-17T20:36:58.293Z,49.60
2023-05-17T20:39:28.066Z,50.90
2023-05-17T20:42:01.235Z,49.30
2023-05-17T20:44:29.720Z,49.00
2023-05-17T20:46:58.382Z,49.60
2023-05-17T20:49:26.795Z,49.50
2023-05-17T20:52:02.273Z,49.50
2023-05-17T20:54:31.297Z,49.60
2023-05-17T20:57:01.957Z,50.50
2023-05-17T20:59:30.268Z,50.50
2023-05-17T21:01:58.681Z,50.10
2023-05-17T21:04:27.228Z,53.80
2023-05-17T21:06:58.016Z,51.20
2023-05-17T21:09:26.353Z,51.20
2023-05-17T21:11:54.665Z,51.00
2023-05-17T21:14:24.508Z,51.60
2023-05-17T21:16:53.480Z,52.20
2023-05-17T21:19:22.004Z,52.00
2023-05-17T21:21:50.430Z,51.30
2023-05-17T21:24:18.880Z,51.30
2023-05-17T21:26:47.249Z,51.40
2023-05-17T21:29:15.589Z,51.50
2023-05-17T21:31:45.297Z,51.60
2023-05-17T21:34:13.653Z,52.00
2023-05-17T21:36:41.982Z,52.20
2023-05-17T21:39:10.524Z,52.50
2023-05-17T21:41:38.829Z,52.60
2023-05-17T21:44:07.285Z,53.10
2023-05-17T21:46:35.682Z,53.30
2023-05-17T21:49:05.482Z,54.30
2023-05-17T21:51:33.871Z,53.90
2023-05-17T21:54:02.175Z,54.60
2023-05-17T21:56:30.584Z,55.90
2023-05-17T21:58:58.950Z,57.90
2023-05-17T22:01:27.374Z,57.50
2023-05-17T22:03:56.173Z,57.10
2023-05-17T22:06:27.491Z,56.40
2023-05-17T22:08:55.819Z,56.10
2023-05-17T22:11:24.243Z,56.30
2023-05-17T22:13:52.762Z,56.20
2023-05-17T22:16:23.668Z,55.10
2023-05-17T22:18:53.244Z,55.50
2023-05-17T22:21:22.538Z,55.60
2023-05-17T22:23:52.361Z,54.80
2023-05-17T22:26:21.475Z,55.40
2023-05-17T22:28:50.341Z,54.70
2023-05-17T22:31:19.761Z,53.10
2023-05-17T22:33:48.336Z,52.70
2023-05-17T22:36:17.203Z,52.50
2023-05-17T22:38:45.520Z,52.20
2023-05-17T22:41:15.277Z,51.80
2023-05-17T22:43:43.564Z,52.00
2023-05-17T22:46:11.898Z,52.20
2023-05-17T22:48:40.565Z,52.70
2023-05-17T22:51:08.997Z,52.80
2023-05-17T22:53:37.308Z,53.00
2023-05-17T22:56:06.724Z,56.00
2023-05-17T22:58:36.634Z,53.50
2023-05-17T23:16:09.453Z,48.80
2023-05-17T23:18:38.127Z,49.20
2023-05-17T23:21:08.643Z,49.30
2023-05-17T23:23:37.846Z,49.20
2023-05-17T23:26:06.660Z,49.40
2023-05-17T23:28:35.500Z,49.30
